EDT,Max TemperatureF,Mean TemperatureF,Min TemperatureF,Max Dew PointF,MeanDew PointF,Min DewpointF,Max Humidity, Mean Humidity, Min Humidity, Max Sea Level PressureIn, Mean Sea Level PressureIn, Min Sea Level PressureIn, Max VisibilityMiles, Mean VisibilityMiles, Min VisibilityMiles, Max Wind SpeedMPH, Mean Wind SpeedMPH, Max Gust SpeedMPH,PrecipitationIn, CloudCover, Events, WindDirDegrees
2012-10-1,79,73,66,75,69,64,100,90,79,29.89,29.86,29.84,10,8,2,15,7,20,0.45,7,Rain,60
2012-10-2,82,79,75,77,75,73,94,87,79,30.02,29.90,29.83,10,9,1,24,8,37,0.49,5,Rain-Thunderstorm,174
2012-10-3,84,79,74,77,74,71,93,84,74,30.19,30.08,30.02,10,10,5,15,6,21,0.10,5,Rain,199
2012-10-4,85,78,70,72,70,68,93,76,59,30.22,30.18,30.15,10,10,6,12,5,16,0.00,2,,281
2012-10-5,84,74,64,68,62,55,93,67,40,30.17,30.10,30.04,10,10,10,10,3,13,0.00,0,,352
2012-10-6,85,73,60,66,63,59,100,74,47,30.03,29.97,29.89,10,10,7,14,2,18,0.00,0,,217
2012-10-7,84,71,57,73,67,56,97,81,65,30.09,29.99,29.93,10,8,2,14,4,20,0.36,5,Rain-Thunderstorm,346
2012-10-8,67,61,55,60,54,52,93,87,81,30.16,30.09,30.04,10,10,3,15,10,20,0.21,7,Rain,7
2012-10-9,60,57,54,56,54,52,100,89,78,30.11,30.08,30.04,10,6,2,14,8,20,0.01,8,Rain,340
2012-10-10,72,64,55,57,54,50,93,73,53,30.11,30.07,29.99,10,10,9,15,7,23,0.00,4,,278
2012-10-11,72,62,52,53,50,45,93,69,44,30.27,30.22,30.11,10,10,10,16,5,23,0.00,0,,19
2012-10-12,75,62,48,55,50,46,96,69,41,30.30,30.22,30.15,10,10,10,13,4,16,0.00,0,,336
2012-10-13,72,61,50,53,49,46,89,71,53,30.42,30.36,30.30,10,10,10,15,8,21,0.00,0,,48
2012-10-14,80,67,53,62,56,48,97,71,45,30.32,30.20,30.08,10,10,10,10,3,14,0.00,1,,77
2012-10-15,82,70,57,68,63,55,97,76,54,30.04,29.86,29.75,10,9,1,18,6,25,0.42,3,Rain-Thunderstorm,228
2012-10-16,70,61,52,57,49,45,89,66,42,29.95,29.89,29.82,10,10,10,18,5,22,0.00,0,,350
2012-10-17,70,60,49,53,50,47,93,70,47,30.02,29.97,29.93,10,10,10,8,2,10,0.00,0,,68
2012-10-18,78,65,52,68,61,50,93,81,69,29.94,29.88,29.82,10,10,5,21,4,26,0.01,3,Rain,148
2012-10-19,79,70,61,68,64,50,97,73,48,29.82,29.79,29.74,10,8,1,14,6,18,0.26,4,Rain,230
2012-10-20,75,63,50,54,49,40,93,61,29,29.93,29.85,29.80,10,10,10,15,5,20,0.00,0,,234
2012-10-21,71,60,48,52,46,42,93,65,37,30.14,30.06,29.93,10,10,10,14,6,20,0.00,0,,346
2012-10-22,74,59,44,52,46,42,93,64,35,30.23,30.18,30.15,10,10,10,9,1,12,0.00,0,,59
2012-10-23,78,63,48,56,51,46,93,65,36,30.21,30.17,30.13,10,10,10,9,2,10,0.00,0,,129
2012-10-24,82,68,53,63,57,51,97,73,49,30.20,30.15,30.10,10,10,8,9,2,12,0.00,1,,1
2012-10-25,80,69,57,66,60,55,100,77,54,30.15,30.11,30.07,10,7,1,14,5,18,0.00,3,,56
2012-10-26,74,67,59,66,62,56,93,83,73,30.06,29.94,29.81,10,9,5,20,12,24,T,4,Rain,22
2012-10-27,69,66,62,64,62,60,93,87,81,29.80,29.58,29.49,10,8,5,28,18,38,1.54,7,Rain,16
2012-10-28,64,61,57,60,54,49,93,79,64,29.51,29.47,29.43,10,10,8,29,19,38,0.54,8,Rain,340
2012-10-29,58,54,49,52,42,35,77,66,54,29.51,29.46,29.41,10,10,10,28,18,37,0.00,8,,292
2012-10-30,57,52,47,40,36,33,63,53,43,29.67,29.52,29.43,10,10,10,22,13,29,0.00,5,,245
2012-10-31,61,52,42,43,37,34,89,64,39,29.79,29.72,29.68,10,10,10,20,8,24,0.00,0,,249